sensor_id;sensor_type;location;lat;lon;timestamp;P1;durP1;ratioP1;P2;durP2;ratioP2
37087;SDS011;23002;52.676;6.432;2023-01-28T00:01:24;9.35;;;4.93;;
37087;SDS011;23002;52.676;6.432;2023-01-28T00:03:51;8.52;;;4.18;;
37087;SDS011;23002;52.676;6.432;2023-01-28T00:06:18;9.93;;;4.32;;
37087;SDS011;23002;52.676;6.432;2023-01-28T00:08:45;9.18;;;4.15;;
37087;SDS011;23002;52.676;6.432;2023-01-28T00:11:13;9.10;;;4.95;;
37087;SDS011;23002;52.676;6.432;2023-01-28T00:13:40;8.32;;;4.40;;
37087;SDS011;23002;52.676;6.432;2023-01-28T00:16:07;8.32;;;4.75;;
37087;SDS011;23002;52.676;6.432;2023-01-28T00:18:35;9.77;;;4.82;;
37087;SDS011;23002;52.676;6.432;2023-01-28T00:21:06;10.15;;;4.88;;
37087;SDS011;23002;52.676;6.432;2023-01-28T00:23:35;8.55;;;4.75;;
37087;SDS011;23002;52.676;6.432;2023-01-28T00:26:03;10.27;;;4.78;;
37087;SDS011;23002;52.676;6.432;2023-01-28T00:28:30;9.05;;;4.97;;
37087;SDS011;23002;52.676;6.432;2023-01-28T00:30:58;9.18;;;4.53;;
37087;SDS011;23002;52.676;6.432;2023-01-28T00:33:25;9.93;;;5.28;;
37087;SDS011;23002;52.676;6.432;2023-01-28T00:35:58;11.00;;;4.70;;
37087;SDS011;23002;52.676;6.432;2023-01-28T00:38:26;8.15;;;4.60;;
37087;SDS011;23002;52.676;6.432;2023-01-28T00:40:53;10.93;;;4.57;;
37087;SDS011;23002;52.676;6.432;2023-01-28T00:43:21;9.27;;;4.43;;
37087;SDS011;23002;52.676;6.432;2023-01-28T00:45:48;9.32;;;4.78;;
37087;SDS011;23002;52.676;6.432;2023-01-28T00:48:15;10.48;;;5.10;;
37087;SDS011;23002;52.676;6.432;2023-01-28T00:50:43;9.30;;;5.47;;
37087;SDS011;23002;52.676;6.432;2023-01-28T00:53:10;9.70;;;5.25;;
37087;SDS011;23002;52.676;6.432;2023-01-28T00:55:37;10.20;;;5.40;;
37087;SDS011;23002;52.676;6.432;2023-01-28T00:58:05;8.25;;;4.45;;
37087;SDS011;23002;52.676;6.432;2023-01-28T01:00:32;9.73;;;5.47;;
37087;SDS011;23002;52.676;6.432;2023-01-28T01:02:59;9.27;;;5.10;;
37087;SDS011;23002;52.676;6.432;2023-01-28T01:05:26;9.05;;;4.85;;
37087;SDS011;23002;52.676;6.432;2023-01-28T01:07:54;12.88;;;5.72;;
37087;SDS011;23002;52.676;6.432;2023-01-28T01:10:21;9.95;;;5.47;;
37087;SDS011;23002;52.676;6.432;2023-01-28T01:12:49;9.15;;;5.03;;
37087;SDS011;23002;52.676;6.432;2023-01-28T01:15:16;10.88;;;5.72;;
37087;SDS011;23002;52.676;6.432;2023-01-28T01:17:45;10.40;;;5.60;;
37087;SDS011;23002;52.676;6.432;2023-01-28T01:20:17;10.38;;;5.60;;
37087;SDS011;23002;52.676;6.432;2023-01-28T01:22:44;10.80;;;5.43;;
37087;SDS011;23002;52.676;6.432;2023-01-28T01:25:12;9.88;;;5.68;;
37087;SDS011;23002;52.676;6.432;2023-01-28T01:27:40;10.25;;;5.40;;
37087;SDS011;23002;52.676;6.432;2023-01-28T01:30:08;8.82;;;5.05;;
37087;SDS011;23002;52.676;6.432;2023-01-28T01:32:35;10.18;;;4.95;;
37087;SDS011;23002;52.676;6.432;2023-01-28T01:35:03;12.15;;;5.63;;
37087;SDS011;23002;52.676;6.432;2023-01-28T01:37:34;9.07;;;4.75;;
37087;SDS011;23002;52.676;6.432;2023-01-28T01:40:02;11.52;;;5.97;;
37087;SDS011;23002;52.676;6.432;2023-01-28T01:42:30;10.20;;;4.90;;
37087;SDS011;23002;52.676;6.432;2023-01-28T01:47:27;8.40;;;4.63;;
37087;SDS011;23002;52.676;6.432;2023-01-28T01:49:55;9.15;;;5.18;;
37087;SDS011;23002;52.676;6.432;2023-01-28T01:52:23;9.27;;;4.75;;
37087;SDS011;23002;52.676;6.432;2023-01-28T01:54:53;9.82;;;5.30;;
37087;SDS011;23002;52.676;6.432;2023-01-28T01:57:23;9.93;;;5.10;;
37087;SDS011;23002;52.676;6.432;2023-01-28T01:59:51;9.98;;;5.25;;
37087;SDS011;23002;52.676;6.432;2023-01-28T02:02:19;8.95;;;4.93;;
37087;SDS011;23002;52.676;6.432;2023-01-28T02:04:47;9.43;;;4.85;;
37087;SDS011;23002;52.676;6.432;2023-01-28T02:07:15;10.15;;;4.75;;
37087;SDS011;23002;52.676;6.432;2023-01-28T02:09:44;8.88;;;4.57;;
37087;SDS011;23002;52.676;6.432;2023-01-28T02:12:19;9.32;;;4.88;;
37087;SDS011;23002;52.676;6.432;2023-01-28T02:14:48;7.22;;;4.35;;
37087;SDS011;23002;52.676;6.432;2023-01-28T02:17:17;9.38;;;4.63;;
37087;SDS011;23002;52.676;6.432;2023-01-28T02:19:47;10.35;;;4.80;;
37087;SDS011;23002;52.676;6.432;2023-01-28T02:27:26;9.00;;;4.90;;
37087;SDS011;23002;52.676;6.432;2023-01-28T02:29:57;11.57;;;5.32;;
37087;SDS011;23002;52.676;6.432;2023-01-28T02:37:37;9.85;;;4.90;;
37087;SDS011;23002;52.676;6.432;2023-01-28T02:40:07;10.32;;;5.15;;
37087;SDS011;23002;52.676;6.432;2023-01-28T02:42:36;10.80;;;5.53;;
37087;SDS011;23002;52.676;6.432;2023-01-28T02:45:14;10.25;;;5.43;;
37087;SDS011;23002;52.676;6.432;2023-01-28T02:47:42;10.35;;;5.30;;
37087;SDS011;23002;52.676;6.432;2023-01-28T02:50:35;9.20;;;5.00;;
37087;SDS011;23002;52.676;6.432;2023-01-28T02:55:52;9.10;;;5.05;;
37087;SDS011;23002;52.676;6.432;2023-01-28T03:06:14;11.73;;;5.13;;
37087;SDS011;23002;52.676;6.432;2023-01-28T03:08:43;9.57;;;4.70;;
37087;SDS011;23002;52.676;6.432;2023-01-28T03:11:30;8.55;;;4.57;;
37087;SDS011;23002;52.676;6.432;2023-01-28T03:14:18;8.55;;;4.47;;
37087;SDS011;23002;52.676;6.432;2023-01-28T03:17:04;10.85;;;5.22;;
37087;SDS011;23002;52.676;6.432;2023-01-28T03:19:52;9.15;;;4.45;;
37087;SDS011;23002;52.676;6.432;2023-01-28T03:22:38;11.45;;;4.85;;
37087;SDS011;23002;52.676;6.432;2023-01-28T03:25:26;10.23;;;5.25;;
37087;SDS011;23002;52.676;6.432;2023-01-28T03:28:12;10.15;;;5.15;;
37087;SDS011;23002;52.676;6.432;2023-01-28T03:31:09;9.50;;;5.10;;
37087;SDS011;23002;52.676;6.432;2023-01-28T03:33:57;10.38;;;5.22;;
37087;SDS011;23002;52.676;6.432;2023-01-28T03:36:43;9.43;;;4.95;;
37087;SDS011;23002;52.676;6.432;2023-01-28T03:39:20;10.73;;;5.50;;
37087;SDS011;23002;52.676;6.432;2023-01-28T03:44:25;10.38;;;5.07;;
37087;SDS011;23002;52.676;6.432;2023-01-28T03:47:11;10.13;;;5.15;;
37087;SDS011;23002;52.676;6.432;2023-01-28T03:49:42;8.90;;;4.60;;
37087;SDS011;23002;52.676;6.432;2023-01-28T03:52:18;9.90;;;5.15;;
37087;SDS011;23002;52.676;6.432;2023-01-28T03:54:46;10.07;;;5.15;;
37087;SDS011;23002;52.676;6.432;2023-01-28T03:57:17;10.68;;;5.40;;
37087;SDS011;23002;52.676;6.432;2023-01-28T03:59:45;13.52;;;5.35;;
37087;SDS011;23002;52.676;6.432;2023-01-28T04:02:15;10.00;;;5.30;;
37087;SDS011;23002;52.676;6.432;2023-01-28T04:04:42;9.30;;;4.90;;
37087;SDS011;23002;52.676;6.432;2023-01-28T04:07:09;8.15;;;4.55;;
37087;SDS011;23002;52.676;6.432;2023-01-28T04:09:39;9.95;;;5.25;;
37087;SDS011;23002;52.676;6.432;2023-01-28T04:12:06;9.25;;;4.72;;
37087;SDS011;23002;52.676;6.432;2023-01-28T04:14:33;9.55;;;4.93;;
37087;SDS011;23002;52.676;6.432;2023-01-28T04:17:01;9.25;;;4.80;;
37087;SDS011;23002;52.676;6.432;2023-01-28T04:19:28;8.82;;;4.80;;
37087;SDS011;23002;52.676;6.432;2023-01-28T04:21:56;9.50;;;4.80;;
37087;SDS011;23002;52.676;6.432;2023-01-28T04:24:23;8.35;;;4.57;;
37087;SDS011;23002;52.676;6.432;2023-01-28T04:26:51;10.90;;;5.80;;
37087;SDS011;23002;52.676;6.432;2023-01-28T04:29:21;12.13;;;5.55;;
37087;SDS011;23002;52.676;6.432;2023-01-28T04:31:48;10.65;;;5.07;;
37087;SDS011;23002;52.676;6.432;2023-01-28T04:34:15;10.93;;;5.90;;
37087;SDS011;23002;52.676;6.432;2023-01-28T04:36:43;10.50;;;5.20;;
37087;SDS011;23002;52.676;6.432;2023-01-28T04:39:10;10.13;;;5.45;;
37087;SDS011;23002;52.676;6.432;2023-01-28T04:41:37;13.23;;;5.60;;
37087;SDS011;23002;52.676;6.432;2023-01-28T04:44:04;11.10;;;5.68;;
37087;SDS011;23002;52.676;6.432;2023-01-28T04:46:31;11.57;;;5.55;;
37087;SDS011;23002;52.676;6.432;2023-01-28T04:48:58;10.45;;;5.45;;
37087;SDS011;23002;52.676;6.432;2023-01-28T04:51:27;9.68;;;5.35;;
37087;SDS011;23002;52.676;6.432;2023-01-28T04:53:54;8.68;;;4.80;;
37087;SDS011;23002;52.676;6.432;2023-01-28T04:56:21;8.75;;;5.03;;
37087;SDS011;23002;52.676;6.432;2023-01-28T04:58:48;10.70;;;5.40;;
37087;SDS011;23002;52.676;6.432;2023-01-28T05:01:15;10.27;;;5.00;;
37087;SDS011;23002;52.676;6.432;2023-01-28T05:03:42;9.60;;;4.70;;
37087;SDS011;23002;52.676;6.432;2023-01-28T05:06:10;9.73;;;4.95;;
37087;SDS011;23002;52.676;6.432;2023-01-28T05:08:37;8.93;;;4.88;;
37087;SDS011;23002;52.676;6.432;2023-01-28T05:11:04;9.50;;;5.28;;
37087;SDS011;23002;52.676;6.432;2023-01-28T05:13:34;10.27;;;5.45;;
37087;SDS011;23002;52.676;6.432;2023-01-28T05:16:01;9.32;;;4.88;;
37087;SDS011;23002;52.676;6.432;2023-01-28T05:18:28;10.10;;;4.90;;
37087;SDS011;23002;52.676;6.432;2023-01-28T05:20:56;10.45;;;4.97;;
37087;SDS011;23002;52.676;6.432;2023-01-28T05:23:23;8.15;;;4.38;;
37087;SDS011;23002;52.676;6.432;2023-01-28T05:25:50;10.65;;;5.32;;
37087;SDS011;23002;52.676;6.432;2023-01-28T05:28:17;9.05;;;4.88;;
37087;SDS011;23002;52.676;6.432;2023-01-28T05:30:44;9.73;;;5.18;;
37087;SDS011;23002;52.676;6.432;2023-01-28T05:33:11;10.98;;;5.68;;
37087;SDS011;23002;52.676;6.432;2023-01-28T05:35:39;8.80;;;4.47;;
37087;SDS011;23002;52.676;6.432;2023-01-28T05:38:06;9.93;;;5.57;;
37087;SDS011;23002;52.676;6.432;2023-01-28T05:40:33;10.90;;;5.18;;
37087;SDS011;23002;52.676;6.432;2023-01-28T05:43:00;9.73;;;4.50;;
37087;SDS011;23002;52.676;6.432;2023-01-28T05:45:27;10.02;;;4.57;;
37087;SDS011;23002;52.676;6.432;2023-01-28T05:47:54;8.90;;;4.30;;
37087;SDS011;23002;52.676;6.432;2023-01-28T05:50:22;11.10;;;4.30;;
37087;SDS011;23002;52.676;6.432;2023-01-28T05:52:49;8.15;;;4.85;;
37087;SDS011;23002;52.676;6.432;2023-01-28T05:55:16;9.18;;;4.13;;
37087;SDS011;23002;52.676;6.432;2023-01-28T05:57:46;7.82;;;4.38;;
37087;SDS011;23002;52.676;6.432;2023-01-28T06:00:14;9.02;;;4.55;;
37087;SDS011;23002;52.676;6.432;2023-01-28T06:02:42;10.00;;;4.80;;
37087;SDS011;23002;52.676;6.432;2023-01-28T06:05:09;8.95;;;4.18;;
37087;SDS011;23002;52.676;6.432;2023-01-28T06:07:36;10.90;;;4.90;;
37087;SDS011;23002;52.676;6.432;2023-01-28T06:10:03;8.45;;;4.00;;
37087;SDS011;23002;52.676;6.432;2023-01-28T06:12:31;9.52;;;4.75;;
37087;SDS011;23002;52.676;6.432;2023-01-28T06:14:58;10.20;;;4.68;;
37087;SDS011;23002;52.676;6.432;2023-01-28T06:17:25;9.63;;;4.55;;
37087;SDS011;23002;52.676;6.432;2023-01-28T06:19:52;11.98;;;4.93;;
37087;SDS011;23002;52.676;6.432;2023-01-28T06:22:19;9.65;;;4.18;;
37087;SDS011;23002;52.676;6.432;2023-01-28T06:24:46;10.27;;;4.65;;
37087;SDS011;23002;52.676;6.432;2023-01-28T06:27:14;10.65;;;4.57;;
37087;SDS011;23002;52.676;6.432;2023-01-28T06:29:41;9.30;;;4.45;;
37087;SDS011;23002;52.676;6.432;2023-01-28T06:32:08;11.55;;;4.78;;
37087;SDS011;23002;52.676;6.432;2023-01-28T06:34:35;9.52;;;4.50;;
37087;SDS011;23002;52.676;6.432;2023-01-28T06:37:02;9.70;;;4.70;;
37087;SDS011;23002;52.676;6.432;2023-01-28T06:39:30;8.65;;;4.72;;
37087;SDS011;23002;52.676;6.432;2023-01-28T06:41:58;10.00;;;4.63;;
37087;SDS011;23002;52.676;6.432;2023-01-28T06:44:25;11.02;;;5.30;;
37087;SDS011;23002;52.676;6.432;2023-01-28T06:46:52;8.68;;;4.35;;
37087;SDS011;23002;52.676;6.432;2023-01-28T06:49:19;7.60;;;4.28;;
37087;SDS011;23002;52.676;6.432;2023-01-28T06:51:47;12.63;;;5.30;;
37087;SDS011;23002;52.676;6.432;2023-01-28T06:54:14;10.77;;;4.93;;
37087;SDS011;23002;52.676;6.432;2023-01-28T06:56:41;9.50;;;5.07;;
37087;SDS011;23002;52.676;6.432;2023-01-28T06:59:09;12.00;;;5.50;;
37087;SDS011;23002;52.676;6.432;2023-01-28T07:01:36;10.90;;;5.15;;
37087;SDS011;23002;52.676;6.432;2023-01-28T07:04:03;11.38;;;4.53;;
37087;SDS011;23002;52.676;6.432;2023-01-28T07:06:30;11.25;;;4.60;;
37087;SDS011;23002;52.676;6.432;2023-01-28T07:08:58;12.13;;;4.47;;
37087;SDS011;23002;52.676;6.432;2023-01-28T07:11:25;12.35;;;4.95;;
37087;SDS011;23002;52.676;6.432;2023-01-28T07:13:52;8.73;;;4.63;;
37087;SDS011;23002;52.676;6.432;2023-01-28T07:16:19;12.65;;;5.07;;
37087;SDS011;23002;52.676;6.432;2023-01-28T07:18:47;9.80;;;4.68;;
37087;SDS011;23002;52.676;6.432;2023-01-28T07:21:14;11.48;;;4.72;;
37087;SDS011;23002;52.676;6.432;2023-01-28T07:23:41;10.60;;;4.80;;
37087;SDS011;23002;52.676;6.432;2023-01-28T07:26:08;9.05;;;5.05;;
37087;SDS011;23002;52.676;6.432;2023-01-28T07:28:35;10.82;;;4.70;;
37087;SDS011;23002;52.676;6.432;2023-01-28T07:31:03;13.65;;;6.72;;
37087;SDS011;23002;52.676;6.432;2023-01-28T07:33:30;14.05;;;6.68;;
37087;SDS011;23002;52.676;6.432;2023-01-28T07:35:57;13.52;;;6.50;;
37087;SDS011;23002;52.676;6.432;2023-01-28T07:38:24;13.38;;;6.35;;
37087;SDS011;23002;52.676;6.432;2023-01-28T07:40:51;13.65;;;6.53;;
37087;SDS011;23002;52.676;6.432;2023-01-28T07:43:19;11.75;;;6.05;;
37087;SDS011;23002;52.676;6.432;2023-01-28T07:45:46;13.30;;;5.43;;
37087;SDS011;23002;52.676;6.432;2023-01-28T07:48:14;10.65;;;4.47;;
37087;SDS011;23002;52.676;6.432;2023-01-28T07:50:41;12.68;;;5.50;;
37087;SDS011;23002;52.676;6.432;2023-01-28T07:53:09;11.23;;;5.63;;
37087;SDS011;23002;52.676;6.432;2023-01-28T07:55:36;12.23;;;5.60;;
37087;SDS011;23002;52.676;6.432;2023-01-28T07:58:04;12.48;;;5.90;;
37087;SDS011;23002;52.676;6.432;2023-01-28T08:00:32;10.65;;;5.80;;
37087;SDS011;23002;52.676;6.432;2023-01-28T08:03:03;12.52;;;5.65;;
37087;SDS011;23002;52.676;6.432;2023-01-28T08:05:40;11.77;;;5.22;;
37087;SDS011;23002;52.676;6.432;2023-01-28T08:08:09;12.35;;;5.63;;
37087;SDS011;23002;52.676;6.432;2023-01-28T08:10:36;13.63;;;5.57;;
37087;SDS011;23002;52.676;6.432;2023-01-28T08:13:04;11.15;;;5.88;;
37087;SDS011;23002;52.676;6.432;2023-01-28T08:15:31;14.30;;;5.47;;
37087;SDS011;23002;52.676;6.432;2023-01-28T08:18:00;11.50;;;5.50;;
37087;SDS011;23002;52.676;6.432;2023-01-28T08:20:28;10.70;;;5.40;;
37087;SDS011;23002;52.676;6.432;2023-01-28T08:23:05;12.20;;;4.95;;
37087;SDS011;23002;52.676;6.432;2023-01-28T08:25:33;10.77;;;4.95;;
37087;SDS011;23002;52.676;6.432;2023-01-28T08:28:01;11.98;;;5.93;;
37087;SDS011;23002;52.676;6.432;2023-01-28T08:30:28;12.93;;;6.13;;
37087;SDS011;23002;52.676;6.432;2023-01-28T08:32:55;14.88;;;6.00;;
37087;SDS011;23002;52.676;6.432;2023-01-28T08:35:24;12.43;;;5.70;;
37087;SDS011;23002;52.676;6.432;2023-01-28T08:37:51;12.68;;;5.65;;
37087;SDS011;23002;52.676;6.432;2023-01-28T08:40:19;11.60;;;5.00;;
37087;SDS011;23002;52.676;6.432;2023-01-28T08:42:47;11.85;;;5.85;;
37087;SDS011;23002;52.676;6.432;2023-01-28T08:45:15;12.25;;;5.38;;
37087;SDS011;23002;52.676;6.432;2023-01-28T08:50:15;16.23;;;6.13;;
37087;SDS011;23002;52.676;6.432;2023-01-28T08:52:43;14.68;;;6.80;;
37087;SDS011;23002;52.676;6.432;2023-01-28T08:55:16;14.52;;;6.32;;
37087;SDS011;23002;52.676;6.432;2023-01-28T08:57:44;13.52;;;7.05;;
37087;SDS011;23002;52.676;6.432;2023-01-28T09:00:11;11.60;;;5.85;;
37087;SDS011;23002;52.676;6.432;2023-01-28T09:02:39;9.90;;;4.93;;
37087;SDS011;23002;52.676;6.432;2023-01-28T09:05:09;10.75;;;5.45;;
37087;SDS011;23002;52.676;6.432;2023-01-28T09:07:37;9.20;;;4.57;;
37087;SDS011;23002;52.676;6.432;2023-01-28T09:10:04;11.52;;;4.80;;
37087;SDS011;23002;52.676;6.432;2023-01-28T09:12:32;10.05;;;5.18;;
37087;SDS011;23002;52.676;6.432;2023-01-28T09:14:59;9.57;;;4.93;;
37087;SDS011;23002;52.676;6.432;2023-01-28T09:17:27;9.00;;;4.60;;
37087;SDS011;23002;52.676;6.432;2023-01-28T09:19:54;8.55;;;4.32;;
37087;SDS011;23002;52.676;6.432;2023-01-28T09:22:21;7.22;;;3.90;;
37087;SDS011;23002;52.676;6.432;2023-01-28T09:24:48;8.98;;;4.65;;
37087;SDS011;23002;52.676;6.432;2023-01-28T09:27:15;8.75;;;4.18;;
37087;SDS011;23002;52.676;6.432;2023-01-28T09:29:43;7.30;;;4.00;;
37087;SDS011;23002;52.676;6.432;2023-01-28T09:32:10;7.32;;;4.05;;
37087;SDS011;23002;52.676;6.432;2023-01-28T09:34:37;10.77;;;4.10;;
37087;SDS011;23002;52.676;6.432;2023-01-28T09:37:04;5.93;;;3.58;;
37087;SDS011;23002;52.676;6.432;2023-01-28T09:39:31;5.35;;;3.40;;
37087;SDS011;23002;52.676;6.432;2023-01-28T09:47:27;11.35;;;6.88;;
37087;SDS011;23002;52.676;6.432;2023-01-28T09:49:57;6.55;;;3.90;;
37087;SDS011;23002;52.676;6.432;2023-01-28T09:52:25;5.53;;;3.42;;
37087;SDS011;23002;52.676;6.432;2023-01-28T09:57:44;6.50;;;3.50;;
37087;SDS011;23002;52.676;6.432;2023-01-28T10:00:16;5.43;;;3.08;;
37087;SDS011;23002;52.676;6.432;2023-01-28T10:05:25;6.70;;;3.40;;
37087;SDS011;23002;52.676;6.432;2023-01-28T10:18:39;7.57;;;3.20;;
37087;SDS011;23002;52.676;6.432;2023-01-28T10:21:14;6.63;;;4.07;;
37087;SDS011;23002;52.676;6.432;2023-01-28T10:24:00;7.47;;;3.85;;
37087;SDS011;23002;52.676;6.432;2023-01-28T10:26:36;6.72;;;3.38;;
37087;SDS011;23002;52.676;6.432;2023-01-28T10:34:40;5.57;;;2.83;;
37087;SDS011;23002;52.676;6.432;2023-01-28T10:37:08;7.05;;;3.70;;
37087;SDS011;23002;52.676;6.432;2023-01-28T10:39:38;8.75;;;3.60;;
37087;SDS011;23002;52.676;6.432;2023-01-28T10:42:15;5.55;;;3.33;;
37087;SDS011;23002;52.676;6.432;2023-01-28T10:44:42;7.20;;;3.63;;
37087;SDS011;23002;52.676;6.432;2023-01-28T10:47:15;7.80;;;3.35;;
37087;SDS011;23002;52.676;6.432;2023-01-28T10:49:45;7.82;;;3.42;;
37087;SDS011;23002;52.676;6.432;2023-01-28T10:52:15;7.22;;;3.47;;
37087;SDS011;23002;52.676;6.432;2023-01-28T10:54:43;7.72;;;3.92;;
37087;SDS011;23002;52.676;6.432;2023-01-28T10:57:14;6.30;;;3.03;;
37087;SDS011;23002;52.676;6.432;2023-01-28T10:59:43;6.32;;;3.20;;
37087;SDS011;23002;52.676;6.432;2023-01-28T11:05:35;5.93;;;3.22;;
37087;SDS011;23002;52.676;6.432;2023-01-28T11:07:43;7.47;;;3.40;;
37087;SDS011;23002;52.676;6.432;2023-01-28T11:10:28;6.97;;;3.35;;
37087;SDS011;23002;52.676;6.432;2023-01-28T11:12:58;5.93;;;3.10;;
37087;SDS011;23002;52.676;6.432;2023-01-28T11:15:25;7.40;;;3.67;;
37087;SDS011;23002;52.676;6.432;2023-01-28T11:17:54;6.53;;;3.22;;
37087;SDS011;23002;52.676;6.432;2023-01-28T11:20:23;7.63;;;3.67;;
37087;SDS011;23002;52.676;6.432;2023-01-28T11:22:50;9.23;;;3.88;;
37087;SDS011;23002;52.676;6.432;2023-01-28T11:39:30;6.32;;;3.00;;
37087;SDS011;23002;52.676;6.432;2023-01-28T12:10:24;7.95;;;3.45;;
37087;SDS011;23002;52.676;6.432;2023-01-28T12:28:40;12.60;;;3.75;;
37087;SDS011;23002;52.676;6.432;2023-01-28T12:34:02;7.97;;;3.55;;
37087;SDS011;23002;52.676;6.432;2023-01-28T12:36:51;7.20;;;3.47;;
37087;SDS011;23002;52.676;6.432;2023-01-28T12:39:48;7.05;;;3.35;;
37087;SDS011;23002;52.676;6.432;2023-01-28T12:42:20;7.45;;;3.00;;
37087;SDS011;23002;52.676;6.432;2023-01-28T12:44:50;5.78;;;2.90;;
37087;SDS011;23002;52.676;6.432;2023-01-28T12:47:21;6.95;;;3.25;;
37087;SDS011;23002;52.676;6.432;2023-01-28T12:49:52;7.60;;;3.40;;
37087;SDS011;23002;52.676;6.432;2023-01-28T12:55:00;7.15;;;3.30;;
37087;SDS011;23002;52.676;6.432;2023-01-28T12:57:31;7.18;;;3.28;;
37087;SDS011;23002;52.676;6.432;2023-01-28T13:00:03;6.55;;;3.42;;
37087;SDS011;23002;52.676;6.432;2023-01-28T13:02:33;6.07;;;3.10;;
37087;SDS011;23002;52.676;6.432;2023-01-28T13:05:10;6.93;;;3.25;;
37087;SDS011;23002;52.676;6.432;2023-01-28T13:08:01;6.75;;;3.28;;
37087;SDS011;23002;52.676;6.432;2023-01-28T13:13:01;7.43;;;3.30;;
37087;SDS011;23002;52.676;6.432;2023-01-28T13:15:29;8.27;;;3.38;;
37087;SDS011;23002;52.676;6.432;2023-01-28T13:17:58;8.45;;;3.33;;
37087;SDS011;23002;52.676;6.432;2023-01-28T13:21:11;7.88;;;3.40;;
37087;SDS011;23002;52.676;6.432;2023-01-28T13:23:51;7.30;;;3.58;;
37087;SDS011;23002;52.676;6.432;2023-01-28T13:28:50;8.27;;;3.53;;
37087;SDS011;23002;52.676;6.432;2023-01-28T13:31:18;8.43;;;3.55;;
37087;SDS011;23002;52.676;6.432;2023-01-28T13:33:46;9.07;;;3.63;;
37087;SDS011;23002;52.676;6.432;2023-01-28T13:36:30;8.75;;;4.15;;
37087;SDS011;23002;52.676;6.432;2023-01-28T13:39:00;9.82;;;3.75;;
37087;SDS011;23002;52.676;6.432;2023-01-28T13:41:41;9.77;;;4.13;;
37087;SDS011;23002;52.676;6.432;2023-01-28T13:44:18;8.77;;;4.18;;
37087;SDS011;23002;52.676;6.432;2023-01-28T13:46:46;9.30;;;4.43;;
37087;SDS011;23002;52.676;6.432;2023-01-28T13:49:17;9.70;;;3.85;;
37087;SDS011;23002;52.676;6.432;2023-01-28T13:51:58;9.65;;;4.72;;
37087;SDS011;23002;52.676;6.432;2023-01-28T13:54:27;8.68;;;3.95;;
37087;SDS011;23002;52.676;6.432;2023-01-28T14:15:32;7.90;;;3.45;;
37087;SDS011;23002;52.676;6.432;2023-01-28T14:17:38;6.97;;;3.53;;
37087;SDS011;23002;52.676;6.432;2023-01-28T14:20:19;7.25;;;3.30;;
37087;SDS011;23002;52.676;6.432;2023-01-28T14:22:47;6.82;;;3.47;;
37087;SDS011;23002;52.676;6.432;2023-01-28T14:25:19;6.78;;;3.30;;
37087;SDS011;23002;52.676;6.432;2023-01-28T14:27:49;7.75;;;3.55;;
37087;SDS011;23002;52.676;6.432;2023-01-28T14:30:21;9.43;;;3.60;;
37087;SDS011;23002;52.676;6.432;2023-01-28T14:32:50;10.02;;;3.72;;
37087;SDS011;23002;52.676;6.432;2023-01-28T14:35:24;8.38;;;3.70;;
37087;SDS011;23002;52.676;6.432;2023-01-28T14:37:53;9.52;;;4.07;;
37087;SDS011;23002;52.676;6.432;2023-01-28T14:40:20;9.00;;;4.05;;
37087;SDS011;23002;52.676;6.432;2023-01-28T14:42:49;8.52;;;3.67;;
37087;SDS011;23002;52.676;6.432;2023-01-28T14:56:15;9.05;;;3.60;;
37087;SDS011;23002;52.676;6.432;2023-01-28T14:58:52;5.80;;;2.67;;
37087;SDS011;23002;52.676;6.432;2023-01-28T15:01:26;7.53;;;3.47;;
37087;SDS011;23002;52.676;6.432;2023-01-28T15:03:53;9.10;;;3.75;;
37087;SDS011;23002;52.676;6.432;2023-01-28T15:06:21;7.25;;;3.88;;
37087;SDS011;23002;52.676;6.432;2023-01-28T15:08:50;7.03;;;4.18;;
37087;SDS011;23002;52.676;6.432;2023-01-28T15:11:22;7.05;;;3.53;;
37087;SDS011;23002;52.676;6.432;2023-01-28T15:13:56;8.10;;;3.20;;
37087;SDS011;23002;52.676;6.432;2023-01-28T15:16:25;9.40;;;3.85;;
37087;SDS011;23002;52.676;6.432;2023-01-28T15:18:58;8.68;;;3.72;;
37087;SDS011;23002;52.676;6.432;2023-01-28T15:21:26;10.10;;;3.60;;
37087;SDS011;23002;52.676;6.432;2023-01-28T15:23:55;8.18;;;3.30;;
37087;SDS011;23002;52.676;6.432;2023-01-28T15:26:24;8.68;;;3.67;;
37087;SDS011;23002;52.676;6.432;2023-01-28T15:28:52;8.68;;;3.92;;
37087;SDS011;23002;52.676;6.432;2023-01-28T15:31:23;9.55;;;4.20;;
37087;SDS011;23002;52.676;6.432;2023-01-28T15:33:58;11.52;;;5.07;;
37087;SDS011;23002;52.676;6.432;2023-01-28T15:36:25;8.55;;;4.05;;
37087;SDS011;23002;52.676;6.432;2023-01-28T15:38:53;6.88;;;3.38;;
37087;SDS011;23002;52.676;6.432;2023-01-28T15:41:22;10.48;;;4.18;;
37087;SDS011;23002;52.676;6.432;2023-01-28T15:43:50;9.40;;;4.40;;
37087;SDS011;23002;52.676;6.432;2023-01-28T15:46:18;9.20;;;3.70;;
37087;SDS011;23002;52.676;6.432;2023-01-28T15:48:48;14.02;;;4.97;;
37087;SDS011;23002;52.676;6.432;2023-01-28T15:51:18;14.60;;;5.65;;
37087;SDS011;23002;52.676;6.432;2023-01-28T15:53:46;12.38;;;5.50;;
37087;SDS011;23002;52.676;6.432;2023-01-28T15:56:15;16.85;;;5.15;;
37087;SDS011;23002;52.676;6.432;2023-01-28T15:58:49;13.20;;;4.75;;
37087;SDS011;23002;52.676;6.432;2023-01-28T16:01:17;9.63;;;4.07;;
37087;SDS011;23002;52.676;6.432;2023-01-28T16:03:45;13.50;;;5.35;;
37087;SDS011;23002;52.676;6.432;2023-01-28T16:08:52;15.95;;;7.78;;
37087;SDS011;23002;52.676;6.432;2023-01-28T16:11:31;15.95;;;6.88;;
37087;SDS011;23002;52.676;6.432;2023-01-28T16:13:59;12.75;;;5.00;;
37087;SDS011;23002;52.676;6.432;2023-01-28T16:16:33;11.88;;;4.97;;
37087;SDS011;23002;52.676;6.432;2023-01-28T16:19:04;11.98;;;6.07;;
37087;SDS011;23002;52.676;6.432;2023-01-28T16:21:36;11.73;;;5.35;;
37087;SDS011;23002;52.676;6.432;2023-01-28T16:24:19;10.27;;;4.93;;
37087;SDS011;23002;52.676;6.432;2023-01-28T16:29:41;12.98;;;5.53;;
37087;SDS011;23002;52.676;6.432;2023-01-28T16:32:27;11.98;;;6.07;;
37087;SDS011;23002;52.676;6.432;2023-01-28T16:34:55;10.63;;;4.32;;
37087;SDS011;23002;52.676;6.432;2023-01-28T16:37:22;8.52;;;4.30;;
37087;SDS011;23002;52.676;6.432;2023-01-28T16:39:54;12.35;;;4.53;;
37087;SDS011;23002;52.676;6.432;2023-01-28T16:42:25;11.35;;;4.70;;
37087;SDS011;23002;52.676;6.432;2023-01-28T16:44:52;8.75;;;3.60;;
37087;SDS011;23002;52.676;6.432;2023-01-28T16:47:19;7.95;;;3.75;;
37087;SDS011;23002;52.676;6.432;2023-01-28T16:49:46;10.32;;;4.60;;
37087;SDS011;23002;52.676;6.432;2023-01-28T16:52:14;12.75;;;4.53;;
37087;SDS011;23002;52.676;6.432;2023-01-28T16:54:42;9.05;;;4.35;;
37087;SDS011;23002;52.676;6.432;2023-01-28T16:57:16;9.90;;;4.82;;
37087;SDS011;23002;52.676;6.432;2023-01-28T16:59:44;9.70;;;4.80;;
37087;SDS011;23002;52.676;6.432;2023-01-28T17:02:12;9.45;;;4.65;;
37087;SDS011;23002;52.676;6.432;2023-01-28T17:04:39;9.32;;;4.38;;
37087;SDS011;23002;52.676;6.432;2023-01-28T17:07:07;10.27;;;4.85;;
37087;SDS011;23002;52.676;6.432;2023-01-28T17:09:34;9.05;;;4.03;;
37087;SDS011;23002;52.676;6.432;2023-01-28T17:12:02;7.50;;;4.20;;
37087;SDS011;23002;52.676;6.432;2023-01-28T17:14:29;8.25;;;3.65;;
37087;SDS011;23002;52.676;6.432;2023-01-28T17:16:56;9.98;;;4.32;;
37087;SDS011;23002;52.676;6.432;2023-01-28T17:19:23;9.90;;;4.40;;
37087;SDS011;23002;52.676;6.432;2023-01-28T17:21:50;9.70;;;4.32;;
37087;SDS011;23002;52.676;6.432;2023-01-28T17:24:18;8.43;;;3.58;;
37087;SDS011;23002;52.676;6.432;2023-01-28T17:26:45;9.07;;;3.65;;
37087;SDS011;23002;52.676;6.432;2023-01-28T17:29:12;14.00;;;4.75;;
37087;SDS011;23002;52.676;6.432;2023-01-28T17:31:39;11.73;;;5.00;;
37087;SDS011;23002;52.676;6.432;2023-01-28T17:34:06;9.45;;;3.90;;
37087;SDS011;23002;52.676;6.432;2023-01-28T17:36:36;9.32;;;4.47;;
37087;SDS011;23002;52.676;6.432;2023-01-28T17:39:04;9.18;;;3.78;;
37087;SDS011;23002;52.676;6.432;2023-01-28T17:41:34;9.18;;;3.70;;